Time;durP1;ratioP1;P1;durP2;ratioP2;P2;SDS_P1;SDS_P2;PMS_P1;PMS_P2;Temp;Humidity;BMP_temperature;BMP_pressure;BME280_temperature;BME280_humidity;BME280_pressure;Samples;Min_cycle;Max_cycle;Signal;HPM_P1;HPM_P2
2023/04/19 00:02:27;;;;;;;7.35;5.70;;;10.60;92.90;;;;;;5136495;27;20279;-68
2023/04/19 00:05:03;;;;;;;8.52;6.57;;;10.60;92.90;;;;;;5136424;27;20181;-67
2023/04/19 00:07:32;;;;;;;8.25;5.88;;;10.60;93.00;;;;;;5136698;27;20215;-67
2023/04/19 00:09:59;;;;;;;8.10;5.18;;;10.60;92.90;;;;;;5136198;27;20197;-67
2023/04/19 00:12:28;;;;;;;7.50;5.72;;;10.60;93.00;;;;;;5135170;27;20275;-67
2023/04/19 00:14:55;;;;;;;6.05;5.10;;;10.70;93.00;;;;;;5135696;27;20216;-68
2023/04/19 00:17:24;;;;;;;8.40;6.05;;;10.70;92.90;;;;;;5136045;27;20273;-67
2023/04/19 00:19:51;;;;;;;8.40;6.47;;;10.70;92.80;;;;;;5136083;27;20187;-67
2023/04/19 00:22:18;;;;;;;8.00;5.80;;;10.70;92.90;;;;;;5135971;27;20266;-67
2023/04/19 00:24:47;;;;;;;8.55;5.78;;;10.80;92.90;;;;;;5136134;27;20267;-67
2023/04/19 00:27:14;;;;;;;9.13;5.43;;;10.70;92.80;;;;;;5134812;27;20680;-68
2023/04/19 00:29:41;;;;;;;8.52;6.47;;;10.70;92.80;;;;;;5135160;27;20227;-67
2023/04/19 00:32:08;;;;;;;6.78;5.35;;;10.80;92.80;;;;;;5135744;27;20215;-67
2023/04/19 00:34:35;;;;;;;7.68;5.78;;;10.80;92.90;;;;;;5135148;27;20641;-68
2023/04/19 00:37:05;;;;;;;7.38;5.40;;;10.80;93.00;;;;;;5135491;27;20286;-67
2023/04/19 00:39:32;;;;;;;6.72;4.43;;;10.80;93.00;;;;;;5135247;27;20234;-67
2023/04/19 00:42:01;;;;;;;8.20;5.88;;;10.80;92.90;;;;;;5135632;27;20237;-67
2023/04/19 00:44:28;;;;;;;7.93;4.53;;;10.80;92.80;;;;;;5135655;27;20223;-67
2023/04/19 00:46:56;;;;;;;7.45;5.20;;;10.80;92.90;;;;;;5135820;27;20231;-67
2023/04/19 00:49:24;;;;;;;7.35;5.10;;;10.80;92.80;;;;;;5135559;27;20224;-67
2023/04/19 00:51:51;;;;;;;7.65;5.68;;;10.80;92.80;;;;;;5135353;27;20191;-67
2023/04/19 00:54:19;;;;;;;6.82;6.03;;;10.80;92.60;;;;;;5134535;27;20219;-67
2023/04/19 00:56:46;;;;;;;6.85;5.07;;;10.90;92.50;;;;;;5135243;27;20187;-67
2023/04/19 00:59:17;;;;;;;9.73;6.25;;;10.90;92.40;;;;;;5135331;27;20198;-67
2023/04/19 01:01:44;;;;;;;7.65;6.05;;;10.80;92.50;;;;;;5135469;27;20198;-67
2023/04/19 01:04:11;;;;;;;10.38;5.35;;;10.80;92.60;;;;;;5133993;27;20188;-67
2023/04/19 01:06:41;;;;;;;7.13;5.78;;;10.80;92.60;;;;;;5135210;27;20274;-68
2023/04/19 01:09:08;;;;;;;7.15;5.70;;;10.80;92.70;;;;;;5135132;27;20218;-67
2023/04/19 01:11:35;;;;;;;6.82;6.05;;;10.80;92.70;;;;;;5134958;27;20219;-67
2023/04/19 01:14:02;;;;;;;7.32;5.82;;;10.80;92.60;;;;;;5135233;27;20227;-67
2023/04/19 01:16:32;;;;;;;8.32;6.10;;;10.80;92.50;;;;;;5132681;27;20627;-67
2023/04/19 01:19:04;;;;;;;8.10;5.72;;;10.80;92.50;;;;;;5134710;27;20227;-67
2023/04/19 01:21:31;;;;;;;8.05;6.55;;;10.80;92.50;;;;;;5135084;27;20252;-67
2023/04/19 01:24:00;;;;;;;8.65;6.60;;;10.70;92.60;;;;;;5134482;27;20187;-67
2023/04/19 01:26:27;;;;;;;8.63;6.32;;;10.70;92.60;;;;;;5134743;27;20188;-68
2023/04/19 01:28:54;;;;;;;7.72;6.18;;;10.70;92.50;;;;;;5134780;27;20261;-67
2023/04/19 01:31:21;;;;;;;8.40;7.50;;;10.70;92.60;;;;;;5134370;27;20184;-67
2023/04/19 01:33:48;;;;;;;7.40;5.68;;;10.70;92.60;;;;;;5134117;27;20184;-67
2023/04/19 01:36:23;;;;;;;7.72;6.72;;;10.70;92.80;;;;;;5134625;27;20191;-67
2023/04/19 01:38:50;;;;;;;7.97;5.80;;;10.70;92.80;;;;;;5134576;27;20183;-67
2023/04/19 01:41:19;;;;;;;11.05;7.93;;;10.70;92.80;;;;;;5133143;27;20188;-68
2023/04/19 01:43:46;;;;;;;8.98;7.10;;;10.70;92.80;;;;;;5133727;27;20198;-67
2023/04/19 01:46:13;;;;;;;9.35;7.28;;;10.70;92.80;;;;;;5134658;27;20289;-68
2023/04/19 01:48:41;;;;;;;9.15;7.43;;;10.70;92.80;;;;;;5134696;27;20254;-68
2023/04/19 01:51:08;;;;;;;8.77;6.53;;;10.60;92.80;;;;;;5133319;27;20176;-68
2023/04/19 01:53:35;;;;;;;10.73;6.80;;;10.60;93.10;;;;;;5132240;27;20686;-68
2023/04/19 01:56:02;;;;;;;10.38;7.90;;;10.60;93.10;;;;;;5134517;27;20223;-68
2023/04/19 01:58:30;;;;;;;9.82;7.43;;;10.60;93.00;;;;;;5134102;27;20183;-67
2023/04/19 02:00:57;;;;;;;10.40;7.45;;;10.60;93.10;;;;;;5134292;27;20188;-68
2023/04/19 02:03:24;;;;;;;10.15;6.85;;;10.60;93.10;;;;;;5133699;27;20573;-67
2023/04/19 02:05:52;;;;;;;9.18;7.75;;;10.60;93.10;;;;;;5134502;27;20274;-67
2023/04/19 02:08:19;;;;;;;9.55;7.13;;;10.60;93.00;;;;;;5134030;27;20530;-68
2023/04/19 02:10:46;;;;;;;9.60;8.00;;;10.60;93.20;;;;;;5133016;27;20545;-68
2023/04/19 02:13:13;;;;;;;10.18;7.68;;;10.60;93.20;;;;;;5131788;27;20211;-68
2023/04/19 02:15:42;;;;;;;10.55;8.63;;;10.60;93.20;;;;;;5133289;27;20223;-68
2023/04/19 02:18:10;;;;;;;11.98;9.02;;;10.60;93.20;;;;;;5133690;27;20188;-68
2023/04/19 02:20:37;;;;;;;10.55;7.60;;;10.60;93.40;;;;;;5134213;27;20707;-68
2023/04/19 02:23:04;;;;;;;11.23;8.73;;;10.50;93.30;;;;;;5132837;27;20200;-68
2023/04/19 02:25:33;;;;;;;10.77;8.13;;;10.50;93.40;;;;;;5113126;28;20279;-68
2023/04/19 02:28:00;;;;;;;12.73;8.68;;;10.50;93.60;;;;;;5130496;27;20632;-68
2023/04/19 02:30:27;;;;;;;12.32;9.88;;;10.50;93.70;;;;;;5132805;28;20306;-68
2023/04/19 02:32:57;;;;;;;14.13;9.20;;;10.60;93.70;;;;;;5132700;28;20220;-68
2023/04/19 02:35:24;;;;;;;13.23;9.93;;;10.60;93.60;;;;;;5133672;28;20603;-68
2023/04/19 02:37:51;;;;;;;13.65;9.68;;;10.60;93.60;;;;;;5131513;28;20190;-67
2023/04/19 02:40:21;;;;;;;11.88;8.55;;;10.60;93.60;;;;;;5133488;28;20237;-68
2023/04/19 02:42:48;;;;;;;14.90;9.23;;;10.60;93.70;;;;;;5130666;28;20215;-68
2023/04/19 02:45:16;;;;;;;11.32;9.05;;;10.50;93.50;;;;;;5133645;28;20188;-68
2023/04/19 02:47:45;;;;;;;11.60;9.05;;;10.60;93.60;;;;;;5131938;28;20191;-68
2023/04/19 02:50:15;;;;;;;13.38;9.93;;;10.60;93.60;;;;;;5133466;28;20215;-68
2023/04/19 02:52:42;;;;;;;12.07;8.63;;;10.50;93.60;;;;;;5132685;28;20183;-68
2023/04/19 02:55:09;;;;;;;14.73;10.77;;;10.50;93.70;;;;;;5133591;28;20202;-68
2023/04/19 02:57:38;;;;;;;12.90;9.32;;;10.50;93.60;;;;;;5133668;28;20686;-68
2023/04/19 03:00:07;;;;;;;11.32;9.20;;;10.50;93.70;;;;;;5133769;28;20223;-67
2023/04/19 03:02:34;;;;;;;12.88;9.30;;;10.50;93.70;;;;;;5132338;28;20198;-68
2023/04/19 03:05:01;;;;;;;11.95;9.18;;;10.50;93.90;;;;;;5132975;28;20187;-68
2023/04/19 03:07:33;;;;;;;13.65;10.30;;;10.50;93.90;;;;;;5133575;28;20192;-68
2023/04/19 03:10:00;;;;;;;12.57;9.73;;;10.50;93.90;;;;;;5133856;28;20311;-68
2023/04/19 03:12:27;;;;;;;13.70;9.43;;;10.50;93.80;;;;;;5133338;28;20249;-68
2023/04/19 03:14:54;;;;;;;14.15;11.07;;;10.50;93.90;;;;;;5132749;28;20222;-68
2023/04/19 03:17:21;;;;;;;14.00;10.32;;;10.50;94.00;;;;;;5132348;28;20711;-67
2023/04/19 03:19:49;;;;;;;13.45;9.77;;;10.50;94.00;;;;;;5133287;28;20188;-67
2023/04/19 03:22:16;;;;;;;12.13;9.75;;;10.50;94.00;;;;;;5132524;28;20223;-68
2023/04/19 03:24:44;;;;;;;12.02;8.25;;;10.50;94.00;;;;;;5132031;28;20187;-68
2023/04/19 03:27:11;;;;;;;13.60;9.63;;;10.50;94.10;;;;;;5133485;28;20188;-68
2023/04/19 03:29:38;;;;;;;13.88;9.38;;;10.50;94.20;;;;;;5133366;28;20695;-67
2023/04/19 03:32:10;;;;;;;12.95;9.45;;;10.50;94.30;;;;;;5131935;28;20267;-68
2023/04/19 03:34:37;;;;;;;13.63;9.93;;;10.50;94.40;;;;;;5131608;27;20222;-68
2023/04/19 03:37:04;;;;;;;15.00;11.15;;;10.50;94.40;;;;;;5136286;27;20226;-68
2023/04/19 03:39:32;;;;;;;14.70;10.85;;;10.50;94.40;;;;;;5136111;27;20219;-68
2023/04/19 03:42:01;;;;;;;13.70;9.98;;;10.50;94.30;;;;;;5136313;27;20188;-68
2023/04/19 03:44:28;;;;;;;14.70;11.25;;;10.50;94.40;;;;;;5137126;27;20195;-67
2023/04/19 03:46:55;;;;;;;16.35;11.32;;;10.50;94.40;;;;;;5133923;27;20192;-68
2023/04/19 03:49:23;;;;;;;17.13;11.95;;;10.50;94.40;;;;;;5136117;27;20234;-67
2023/04/19 03:51:50;;;;;;;16.58;10.98;;;10.50;94.50;;;;;;5136331;27;20194;-68
2023/04/19 03:54:17;;;;;;;13.70;10.75;;;10.50;94.50;;;;;;5136912;27;20622;-68
2023/04/19 03:56:48;;;;;;;19.30;12.25;;;10.40;94.50;;;;;;5136942;27;20188;-68
2023/04/19 03:59:17;;;;;;;14.82;11.27;;;10.40;94.50;;;;;;5136386;27;20230;-68
2023/04/19 04:01:44;;;;;;;15.65;11.55;;;10.50;94.60;;;;;;5136765;27;20714;-68
2023/04/19 04:04:14;;;;;;;15.90;11.95;;;10.50;94.50;;;;;;5136763;27;20273;-68
2023/04/19 04:06:41;;;;;;;17.52;11.88;;;10.50;94.50;;;;;;5136413;27;20209;-68
2023/04/19 04:09:08;;;;;;;16.85;12.68;;;10.50;94.50;;;;;;5136298;27;20267;-67
2023/04/19 04:11:35;;;;;;;16.13;11.80;;;10.40;94.50;;;;;;5136467;27;20204;-68
2023/04/19 04:14:02;;;;;;;16.33;11.90;;;10.40;94.50;;;;;;5135637;27;20463;-68
2023/04/19 04:16:31;;;;;;;15.07;11.10;;;10.40;94.50;;;;;;5135994;27;20216;-68
2023/04/19 04:18:58;;;;;;;16.20;11.50;;;10.40;94.50;;;;;;5136259;27;20709;-68
2023/04/19 04:21:25;;;;;;;16.23;11.07;;;10.40;94.60;;;;;;5136221;27;20719;-67
2023/04/19 04:23:52;;;;;;;16.50;12.23;;;10.40;94.70;;;;;;5134620;27;20198;-68
2023/04/19 04:26:20;;;;;;;15.48;12.13;;;10.50;94.70;;;;;;5135983;27;20188;-67
2023/04/19 04:28:48;;;;;;;17.17;12.68;;;10.40;94.70;;;;;;5134596;27;20631;-68
2023/04/19 04:31:19;;;;;;;16.25;11.75;;;10.50;94.80;;;;;;5135577;27;20274;-68
2023/04/19 04:33:49;;;;;;;18.00;12.27;;;10.50;94.90;;;;;;5134936;27;20216;-68
2023/04/19 04:36:19;;;;;;;15.52;12.40;;;10.40;94.80;;;;;;5135415;27;20274;-68
2023/04/19 04:38:46;;;;;;;16.27;12.20;;;10.40;94.90;;;;;;5136128;27;20238;-68
2023/04/19 04:41:13;;;;;;;19.50;13.43;;;10.40;95.00;;;;;;5136061;27;20254;-68
2023/04/19 04:43:41;;;;;;;16.23;12.00;;;10.40;95.00;;;;;;5134896;27;20222;-68
2023/04/19 04:46:08;;;;;;;19.02;13.55;;;10.50;95.00;;;;;;5135421;27;20188;-68
2023/04/19 04:48:36;;;;;;;19.48;12.88;;;10.50;95.10;;;;;;5135540;27;20581;-68
2023/04/19 04:51:04;;;;;;;62.08;15.05;;;10.40;95.00;;;;;;5135860;27;20223;-68
2023/04/19 04:53:31;;;;;;;18.60;12.80;;;10.40;95.20;;;;;;5135567;27;20187;-68
2023/04/19 04:55:59;;;;;;;19.05;13.50;;;10.40;95.10;;;;;;5135353;27;20227;-68
2023/04/19 04:58:26;;;;;;;15.52;11.98;;;10.50;95.20;;;;;;5134667;27;20576;-68
2023/04/19 05:00:53;;;;;;;19.92;14.15;;;10.50;95.10;;;;;;5135302;27;20191;-67
2023/04/19 05:03:20;;;;;;;17.20;12.70;;;10.50;95.10;;;;;;5133438;27;20246;-68
2023/04/19 05:05:47;;;;;;;18.42;14.15;;;10.50;95.20;;;;;;5134714;27;20480;-68
2023/04/19 05:08:15;;;;;;;19.40;12.27;;;10.50;95.10;;;;;;5133303;27;20179;-68
2023/04/19 05:10:43;;;;;;;17.13;12.20;;;10.50;95.20;;;;;;5134166;27;20200;-68
2023/04/19 05:13:10;;;;;;;18.95;12.50;;;10.50;95.20;;;;;;5132824;27;20207;-68
2023/04/19 05:15:38;;;;;;;16.38;12.40;;;10.60;95.10;;;;;;5134558;27;20223;-68
2023/04/19 05:18:06;;;;;;;17.27;11.85;;;10.60;95.10;;;;;;5134333;27;20550;-68
2023/04/19 05:20:40;;;;;;;17.08;11.40;;;10.60;95.10;;;;;;5134940;27;20649;-68
2023/04/19 05:23:09;;;;;;;18.67;13.38;;;10.60;95.10;;;;;;5134392;27;20568;-68
2023/04/19 05:25:38;;;;;;;19.63;13.65;;;10.70;95.00;;;;;;5135151;27;20555;-68
2023/04/19 05:28:05;;;;;;;15.60;11.70;;;10.70;94.80;;;;;;5135170;27;20188;-68
2023/04/19 05:30:32;;;;;;;15.73;13.18;;;10.70;94.70;;;;;;5133371;27;20253;-68
2023/04/19 05:32:59;;;;;;;19.83;15.05;;;10.70;94.90;;;;;;5134433;27;20649;-68
2023/04/19 05:35:28;;;;;;;18.27;12.50;;;10.70;94.70;;;;;;5135008;27;20192;-68
2023/04/19 05:37:55;;;;;;;16.73;11.13;;;10.80;94.40;;;;;;5131138;27;20596;-68
2023/04/19 05:40:23;;;;;;;17.90;11.55;;;10.80;94.40;;;;;;5131897;27;20842;-68
2023/04/19 05:42:51;;;;;;;17.50;13.15;;;10.80;94.20;;;;;;5110900;27;20177;-69
2023/04/19 05:45:19;;;;;;;19.92;13.15;;;10.80;94.00;;;;;;5122327;27;20570;-68
2023/04/19 05:47:46;;;;;;;18.42;12.10;;;10.90;94.10;;;;;;5118450;27;20187;-68
2023/04/19 05:50:16;;;;;;;20.13;11.77;;;11.00;94.00;;;;;;5128982;27;20264;-68
2023/04/19 05:52:43;;;;;;;20.38;12.32;;;11.00;94.10;;;;;;5130228;27;20188;-68
2023/04/19 05:55:10;;;;;;;20.10;13.25;;;11.10;94.10;;;;;;5130807;27;20270;-68
2023/04/19 05:57:37;;;;;;;21.08;13.80;;;11.10;93.90;;;;;;5130713;27;20277;-68
2023/04/19 06:00:08;;;;;;;20.92;12.93;;;11.10;93.80;;;;;;5120536;27;20224;-68
2023/04/19 06:02:35;;;;;;;20.10;12.45;;;11.20;93.70;;;;;;5128280;27;20249;-68
2023/04/19 06:05:03;;;;;;;16.38;11.00;;;11.20;93.50;;;;;;5117284;27;20192;-68
2023/04/19 06:07:30;;;;;;;13.40;9.90;;;11.20;93.30;;;;;;5113460;27;20193;-68
2023/04/19 06:09:57;;;;;;;15.20;9.88;;;11.30;93.20;;;;;;5114631;27;20339;-67
2023/04/19 06:12:24;;;;;;;14.00;10.25;;;11.30;93.10;;;;;;5115656;27;20239;-68
2023/04/19 06:14:52;;;;;;;11.63;8.60;;;11.30;93.20;;;;;;5115955;27;20235;-68
2023/04/19 06:17:23;;;;;;;11.75;8.25;;;11.30;93.20;;;;;;5122885;27;20592;-68
2023/04/19 06:19:51;;;;;;;13.25;7.70;;;11.30;93.20;;;;;;5113795;28;20199;-68
2023/04/19 06:22:18;;;;;;;11.05;8.10;;;11.30;93.10;;;;;;5113055;28;20593;-68
2023/04/19 06:24:50;;;;;;;11.05;8.23;;;11.30;93.00;;;;;;5112337;28;20243;-68
2023/04/19 06:27:17;;;;;;;10.68;8.35;;;11.30;92.80;;;;;;5111503;27;20192;-68
2023/04/19 06:29:44;;;;;;;9.43;6.97;;;11.30;92.90;;;;;;5112633;28;20215;-68
2023/04/19 06:32:11;;;;;;;11.20;7.28;;;11.30;93.00;;;;;;5120591;28;20591;-68
2023/04/19 06:34:40;;;;;;;9.10;6.10;;;11.30;92.90;;;;;;5130185;28;20211;-68
2023/04/19 06:37:09;;;;;;;10.05;7.68;;;11.30;93.00;;;;;;5132495;28;20601;-68
2023/04/19 06:39:36;;;;;;;10.55;7.90;;;11.30;92.90;;;;;;5133735;28;20184;-68
2023/04/19 06:42:04;;;;;;;9.90;7.43;;;11.30;93.40;;;;;;5133867;28;20244;-68
2023/04/19 06:44:31;;;;;;;11.40;9.55;;;11.40;93.10;;;;;;5133686;28;20198;-68
2023/04/19 06:46:58;;;;;;;13.05;11.25;;;11.50;93.20;;;;;;5134071;28;20196;-68
2023/04/19 06:49:29;;;;;;;15.10;11.32;;;11.60;93.30;;;;;;5133726;28;20226;-68
2023/04/19 06:51:59;;;;;;;12.05;10.20;;;11.60;93.30;;;;;;5133616;28;20746;-68
2023/04/19 06:54:27;;;;;;;15.18;10.57;;;11.60;92.90;;;;;;5133947;28;20585;-68
2023/04/19 06:56:54;;;;;;;11.85;10.27;;;11.60;92.70;;;;;;5133784;28;20283;-68
2023/04/19 06:59:21;;;;;;;12.93;10.05;;;11.60;92.80;;;;;;5133534;28;20196;-68
2023/04/19 07:01:48;;;;;;;13.32;10.63;;;11.60;93.00;;;;;;5130965;28;20188;-68
2023/04/19 07:04:15;;;;;;;11.48;9.88;;;11.60;93.10;;;;;;5128824;28;20230;-68
2023/04/19 07:06:44;;;;;;;13.18;9.60;;;11.60;92.90;;;;;;5130585;28;20307;-68
2023/04/19 07:09:12;;;;;;;15.30;10.70;;;11.60;92.80;;;;;;5128749;27;20223;-68
2023/04/19 07:11:39;;;;;;;12.88;8.43;;;11.60;92.70;;;;;;5130463;27;20219;-69
2023/04/19 07:14:07;;;;;;;12.70;9.57;;;11.60;92.80;;;;;;5132481;27;20646;-68
2023/04/19 07:16:36;;;;;;;10.88;9.38;;;11.70;92.90;;;;;;5130909;27;20311;-68
2023/04/19 07:19:03;;;;;;;11.90;8.73;;;11.70;92.90;;;;;;5132240;27;20206;-68
2023/04/19 07:21:33;;;;;;;13.32;9.88;;;11.70;92.80;;;;;;5127067;27;20284;-67
2023/04/19 07:24:00;;;;;;;12.15;9.60;;;11.70;92.60;;;;;;5135766;27;20626;-68
2023/04/19 07:26:29;;;;;;;13.50;9.90;;;11.70;92.70;;;;;;5135910;27;20219;-68
2023/04/19 07:28:57;;;;;;;11.30;10.10;;;11.70;92.80;;;;;;5130972;27;20836;-68
2023/04/19 07:31:28;;;;;;;12.63;10.97;;;11.70;92.80;;;;;;5135918;27;20685;-68
2023/04/19 07:33:55;;;;;;;11.43;9.60;;;11.80;92.90;;;;;;5134661;27;20497;-68
2023/04/19 07:36:22;;;;;;;11.10;9.50;;;11.80;92.80;;;;;;5136162;27;20642;-68
2023/04/19 07:38:49;;;;;;;11.13;9.97;;;11.80;92.70;;;;;;5129648;27;20930;-68
2023/04/19 07:41:16;;;;;;;13.43;10.63;;;11.80;92.80;;;;;;5136232;27;20468;-68
2023/04/19 07:43:45;;;;;;;19.77;11.25;;;11.90;92.40;;;;;;5129192;27;20430;-68
2023/04/19 07:46:15;;;;;;;15.52;12.57;;;11.80;92.40;;;;;;5136503;27;20234;-68
2023/04/19 07:48:42;;;;;;;17.33;12.35;;;11.80;92.60;;;;;;5131962;27;20618;-68
2023/04/19 07:51:11;;;;;;;15.87;11.40;;;11.80;92.50;;;;;;5136398;27;20772;-68
2023/04/19 07:53:40;;;;;;;17.15;12.45;;;11.90;92.50;;;;;;5132910;27;20439;-67
2023/04/19 07:56:11;;;;;;;17.37;13.30;;;11.80;92.40;;;;;;5133434;27;20218;-68
2023/04/19 07:58:40;;;;;;;18.38;14.73;;;11.80;92.30;;;;;;5129333;27;20465;-68
2023/04/19 08:01:08;;;;;;;20.70;14.40;;;11.80;92.10;;;;;;5135233;27;20211;-67
2023/04/19 08:03:49;;;;;;;22.57;15.93;;;11.80;92.00;;;;;;5132321;27;20219;-68
2023/04/19 08:06:17;;;;;;;22.60;14.90;;;11.80;92.00;;;;;;5132444;27;20474;-68
2023/04/19 08:08:45;;;;;;;19.10;15.45;;;11.80;92.20;;;;;;5131090;27;20279;-68
2023/04/19 08:11:12;;;;;;;25.20;16.60;;;11.70;92.40;;;;;;5135629;27;20228;-68
2023/04/19 08:13:39;;;;;;;21.52;16.58;;;11.70;92.50;;;;;;5127733;27;20227;-68
2023/04/19 08:16:08;;;;;;;20.42;15.98;;;11.60;92.50;;;;;;5126666;27;20223;-68
2023/04/19 08:18:35;;;;;;;22.73;17.20;;;11.60;92.60;;;;;;5134802;27;20234;-68
2023/04/19 08:21:04;;;;;;;21.38;15.45;;;11.50;92.60;;;;;;5130811;27;20441;-68
2023/04/19 08:23:31;;;;;;;20.10;15.27;;;11.50;92.70;;;;;;5134865;27;20196;-68
2023/04/19 08:25:58;;;;;;;21.42;15.98;;;11.50;92.90;;;;;;5131181;27;20790;-68
2023/04/19 08:28:25;;;;;;;22.50;16.25;;;11.50;92.90;;;;;;5134645;27;20646;-68
2023/04/19 08:30:52;;;;;;;23.33;17.50;;;11.40;92.90;;;;;;5130606;27;20307;-68
2023/04/19 08:33:20;;;;;;;23.73;17.45;;;11.40;93.00;;;;;;5131491;27;20227;-68
2023/04/19 08:35:48;;;;;;;23.20;15.90;;;11.40;93.20;;;;;;5130746;27;20248;-68
2023/04/19 08:38:15;;;;;;;26.17;18.23;;;11.40;93.30;;;;;;5130535;27;20255;-68
2023/04/19 08:40:52;;;;;;;22.45;16.42;;;11.30;93.30;;;;;;5130017;27;20469;-68
2023/04/19 08:43:20;;;;;;;20.60;15.50;;;11.30;93.30;;;;;;5135338;27;20272;-68
2023/04/19 08:45:48;;;;;;;23.90;17.10;;;11.40;93.30;;;;;;5134312;27;20248;-68
2023/04/19 08:48:16;;;;;;;22.58;16.30;;;11.40;93.30;;;;;;5134463;27;20283;-68
2023/04/19 08:50:45;;;;;;;20.67;15.90;;;11.40;93.50;;;;;;5128406;27;20559;-68
2023/04/19 08:53:13;;;;;;;24.38;17.60;;;11.40;93.50;;;;;;5132864;27;20693;-68
2023/04/19 08:55:42;;;;;;;23.23;14.73;;;11.40;93.50;;;;;;5131657;27;20272;-68
2023/04/19 08:58:09;;;;;;;21.25;16.63;;;11.50;93.40;;;;;;5130222;27;20199;-68
2023/04/19 09:00:39;;;;;;;22.98;16.75;;;11.50;93.20;;;;;;5133467;27;20207;-68
2023/04/19 09:03:08;;;;;;;22.05;16.42;;;11.50;93.20;;;;;;5130067;27;20199;-68
2023/04/19 09:05:35;;;;;;;19.00;14.27;;;11.60;93.20;;;;;;5133723;27;20283;-68
2023/04/19 09:08:26;;;;;;;21.70;16.13;;;11.60;93.30;;;;;;5134446;27;20613;-68
2023/04/19 09:10:54;;;;;;;19.50;14.37;;;11.70;93.30;;;;;;5128486;27;20314;-68
2023/04/19 09:13:21;;;;;;;20.70;15.27;;;11.70;93.40;;;;;;5134561;27;20438;-68
2023/04/19 09:15:48;;;;;;;17.58;14.13;;;11.80;92.60;;;;;;5132569;27;20680;-68
2023/04/19 09:18:15;;;;;;;19.13;14.55;;;11.90;91.90;;;;;;5130376;27;20286;-67
2023/04/19 09:20:44;;;;;;;25.83;14.30;;;11.90;91.80;;;;;;5132615;27;20287;-68
2023/04/19 09:23:12;;;;;;;16.83;12.20;;;12.00;91.70;;;;;;5134074;27;20264;-68
2023/04/19 09:25:50;;;;;;;16.00;12.50;;;12.10;91.70;;;;;;5132768;27;20440;-68
2023/04/19 09:28:17;;;;;;;18.83;15.07;;;12.10;91.70;;;;;;5130254;27;20473;-68
2023/04/19 09:30:45;;;;;;;18.13;12.83;;;12.20;91.50;;;;;;5130176;27;20524;-68
2023/04/19 09:33:13;;;;;;;18.00;13.03;;;12.20;91.50;;;;;;5129086;27;20831;-69
2023/04/19 09:35:41;;;;;;;17.47;12.13;;;12.20;91.20;;;;;;5132473;27;20441;-68
2023/04/19 09:38:08;;;;;;;19.20;12.67;;;12.30;90.80;;;;;;5133782;27;20461;-68
2023/04/19 09:40:36;;;;;;;19.53;13.50;;;12.30;90.60;;;;;;5128612;27;20813;-68
2023/04/19 09:43:05;;;;;;;18.00;12.00;;;12.30;90.40;;;;;;5130118;27;20482;-68
2023/04/19 09:45:41;;;;;;;18.47;12.13;;;12.30;90.50;;;;;;5132401;27;20524;-68
2023/04/19 09:48:10;;;;;;;16.75;13.02;;;12.30;90.40;;;;;;5126316;27;20908;-68
2023/04/19 09:50:51;;;;;;;16.23;11.57;;;12.30;90.10;;;;;;5126622;27;20223;-68
2023/04/19 09:53:19;;;;;;;18.53;13.43;;;12.30;90.20;;;;;;5131763;27;20278;-68
2023/04/19 09:55:47;;;;;;;19.30;13.43;;;12.30;90.20;;;;;;5132904;27;20987;-68
2023/04/19 09:58:16;;;;;;;19.50;14.97;;;12.30;90.30;;;;;;5133232;27;20445;-68
2023/04/19 10:00:46;;;;;;;17.60;11.88;;;12.30;90.10;;;;;;5127364;27;20457;-68
2023/04/19 10:03:15;;;;;;;17.83;12.30;;;12.30;90.10;;;;;;5130482;27;20530;-68
2023/04/19 10:05:42;;;;;;;20.30;15.43;;;12.30;89.70;;;;;;5125624;27;20438;-68
2023/04/19 10:08:11;;;;;;;16.63;12.10;;;12.30;89.50;;;;;;5126005;27;20500;-68
2023/04/19 10:10:40;;;;;;;20.53;13.93;;;12.20;89.60;;;;;;5124473;27;20770;-68
2023/04/19 10:13:10;;;;;;;16.53;12.20;;;12.20;90.00;;;;;;5133137;27;20810;-68
2023/04/19 10:15:41;;;;;;;16.52;12.02;;;12.20;90.20;;;;;;5132517;27;20488;-68
2023/04/19 10:18:09;;;;;;;17.60;13.03;;;12.10;90.20;;;;;;5129028;27;20196;-67
2023/04/19 10:20:41;;;;;;;19.60;13.32;;;12.10;90.20;;;;;;5129070;27;20437;-68
2023/04/19 10:23:09;;;;;;;17.75;12.75;;;12.10;90.20;;;;;;5132946;27;20203;-68
2023/04/19 10:25:38;;;;;;;21.90;14.18;;;12.10;90.20;;;;;;5128644;27;20202;-68
2023/04/19 10:28:05;;;;;;;22.20;16.58;;;12.00;90.40;;;;;;5132044;27;20199;-68
2023/04/19 10:30:32;;;;;;;17.75;12.98;;;12.00;90.70;;;;;;5127145;27;20195;-68
2023/04/19 10:33:02;;;;;;;19.07;13.67;;;12.00;90.90;;;;;;5122748;28;20669;-68
2023/04/19 10:35:36;;;;;;;21.33;15.55;;;12.10;90.70;;;;;;5128968;28;20457;-68
2023/04/19 10:38:08;;;;;;;17.03;12.73;;;12.10;90.60;;;;;;5129976;28;20221;-69
2023/04/19 10:40:59;;;;;;;15.60;12.70;;;12.10;90.40;;;;;;5128613;28;20429;-68
2023/04/19 10:43:27;;;;;;;16.45;12.20;;;12.10;90.50;;;;;;5130307;28;20456;-68
2023/04/19 10:45:58;;;;;;;17.10;11.60;;;12.20;90.70;;;;;;5129851;27;20204;-68
2023/04/19 10:48:54;;;;;;;16.43;11.70;;;12.20;90.70;;;;;;5136933;27;20468;-68
2023/04/19 10:51:23;;;;;;;18.10;14.10;;;12.20;90.30;;;;;;5130680;27;20830;-68
2023/04/19 10:53:53;;;;;;;16.70;12.17;;;12.30;90.30;;;;;;5133293;27;20476;-68
2023/04/19 10:56:21;;;;;;;15.97;12.80;;;12.30;90.20;;;;;;5130422;27;20433;-68
2023/04/19 10:59:22;;;;;;;21.30;12.27;;;12.30;90.10;;;;;;5132776;27;20867;-68
2023/04/19 11:01:52;;;;;;;16.73;12.17;;;12.30;90.20;;;;;;5129937;27;20429;-68
2023/04/19 11:04:37;;;;;;;15.73;11.30;;;12.30;90.20;;;;;;5136421;27;20441;-68
2023/04/19 11:07:08;;;;;;;18.53;13.80;;;12.30;90.00;;;;;;5115233;27;20528;-67
2023/04/19 11:09:37;;;;;;;17.87;11.53;;;12.30;90.00;;;;;;5127109;27;20441;-68
2023/04/19 11:12:07;;;;;;;15.83;13.03;;;12.40;89.50;;;;;;5127741;27;21041;-68
2023/04/19 11:14:36;;;;;;;19.00;11.47;;;12.40;89.00;;;;;;5135212;27;20444;-68
2023/04/19 11:17:13;;;;;;;15.17;10.80;;;12.50;88.70;;;;;;5132097;27;20434;-68
2023/04/19 11:19:42;;;;;;;15.80;9.93;;;12.50;88.70;;;;;;5131336;27;20479;-68
2023/04/19 11:22:10;;;;;;;18.00;10.60;;;12.60;88.80;;;;;;5132368;27;20521;-68
2023/04/19 11:24:36;;;;;;;13.73;11.47;;;12.60;88.30;;;;;;5134414;27;20476;-68
2023/04/19 11:27:09;;;;;;;15.50;10.80;;;12.70;87.70;;;;;;5129691;27;20516;-69
2023/04/19 11:29:36;;;;;;;16.10;11.73;;;12.70;86.80;;;;;;5132946;27;20622;-68
2023/04/19 11:32:05;;;;;;;21.83;14.07;;;12.70;87.00;;;;;;5126085;27;20556;-67
2023/04/19 11:34:37;;;;;;;16.80;13.30;;;12.70;86.90;;;;;;5135223;27;20915;-68
2023/04/19 11:37:05;;;;;;;15.33;13.70;;;12.60;86.40;;;;;;5135970;27;20433;-68
2023/04/19 11:39:32;;;;;;;24.80;13.60;;;12.50;86.90;;;;;;5126328;27;20516;-68
2023/04/19 11:42:05;;;;;;;16.90;13.70;;;12.60;87.50;;;;;;5118687;27;20974;-68
2023/04/19 11:44:33;;;;;;;18.80;13.67;;;12.60;88.20;;;;;;5126093;27;20527;-68
2023/04/19 11:47:03;;;;;;;19.97;14.77;;;12.60;87.40;;;;;;5125803;27;20472;-68
2023/04/19 11:49:32;;;;;;;21.67;14.50;;;12.60;87.20;;;;;;5125942;27;20449;-68
2023/04/19 11:52:00;;;;;;;21.27;14.00;;;12.60;86.70;;;;;;5125872;27;20520;-68
2023/04/19 11:54:29;;;;;;;16.67;12.67;;;12.60;86.90;;;;;;5124105;27;20444;-68
2023/04/19 11:57:00;;;;;;;17.73;13.20;;;12.70;87.20;;;;;;5129535;27;20485;-68
2023/04/19 11:59:28;;;;;;;18.50;14.00;;;12.70;86.60;;;;;;5125476;27;20819;-68
2023/04/19 12:01:55;;;;;;;22.30;14.60;;;12.90;86.40;;;;;;5126048;27;20533;-68
2023/04/19 12:04:27;;;;;;;17.33;12.33;;;13.10;86.10;;;;;;5128538;27;20792;-68
2023/04/19 12:06:59;;;;;;;17.07;13.17;;;13.40;85.30;;;;;;5123679;27;20442;-68
2023/04/19 12:09:28;;;;;;;18.83;13.87;;;13.60;83.10;;;;;;5121288;27;20444;-68
2023/04/19 12:11:56;;;;;;;20.07;14.10;;;13.70;81.50;;;;;;5128677;27;20568;-68
2023/04/19 12:14:25;;;;;;;20.73;13.93;;;13.80;80.70;;;;;;5122408;27;20529;-68
2023/04/19 12:17:09;;;;;;;17.47;11.77;;;13.80;80.40;;;;;;5127252;27;20442;-68
2023/04/19 12:19:37;;;;;;;18.67;13.93;;;13.70;81.50;;;;;;5122676;27;20434;-68
2023/04/19 12:22:15;;;;;;;17.40;13.50;;;13.60;80.70;;;;;;5121429;27;20476;-68
2023/04/19 12:24:43;;;;;;;23.70;14.37;;;13.60;81.40;;;;;;5123625;27;20441;-68
2023/04/19 12:27:11;;;;;;;18.00;13.70;;;13.50;81.30;;;;;;5127837;27;20915;-68
2023/04/19 12:29:39;;;;;;;17.93;12.83;;;13.50;82.00;;;;;;5121497;27;20441;-68
2023/04/19 12:32:06;;;;;;;15.77;12.10;;;13.50;82.10;;;;;;5122920;27;20488;-68
2023/04/19 12:34:33;;;;;;;17.97;13.30;;;13.60;81.40;;;;;;5122388;27;20472;-68
2023/04/19 12:37:01;;;;;;;18.13;12.60;;;13.70;80.20;;;;;;5125753;27;20426;-68
2023/04/19 12:39:28;;;;;;;18.80;12.90;;;13.70;80.20;;;;;;5120811;27;20442;-68
2023/04/19 12:41:57;;;;;;;18.67;13.77;;;13.80;79.40;;;;;;5124543;27;20446;-68